createdAt,value
2022-08-03T00:03:30.414Z,101341.84
2022-08-03T00:08:32.052Z,101326.88
2022-08-03T00:13:33.920Z,101326.41
2022-08-03T00:18:35.549Z,101331.75
2022-08-03T00:23:52.226Z,101330.50
2022-08-03T00:28:54.255Z,101322.13
2022-08-03T00:33:58.064Z,101314.97
2022-08-03T00:39:01.473Z,101313.13
2022-08-03T00:44:03.222Z,101313.13
2022-08-03T00:49:10.508Z,101310.19
2022-08-03T00:54:12.236Z,101301.63
2022-08-03T00:59:16.374Z,101302.25
2022-08-03T01:04:17.952Z,101285.50
2022-08-03T01:09:50.628Z,101287.13
2022-08-03T01:15:03.393Z,101283.72
2022-08-03T01:20:11.905Z,101284.47
2022-08-03T01:25:36.445Z,101283.72
2022-08-03T01:30:43.313Z,101279.69
2022-08-03T01:35:50.658Z,101283.94
2022-08-03T01:40:56.928Z,101275.16
2022-08-03T01:45:59.452Z,101283.63
2022-08-03T01:51:01.159Z,101273.16
2022-08-03T01:56:04.388Z,101273.56
2022-08-03T02:02:15.355Z,101266.25
2022-08-03T02:07:02.104Z,101265.00
2022-08-03T02:12:09.045Z,101260.78
2022-08-03T02:17:12.579Z,101260.66
2022-08-03T02:22:17.656Z,101252.28
2022-08-03T02:27:25.769Z,101249.94
2022-08-03T02:32:54.594Z,101267.22
2022-08-03T02:38:02.279Z,101254.13
2022-08-03T02:43:09.059Z,101251.16
2022-08-03T02:48:11.752Z,101243.09
2022-08-03T02:53:15.949Z,101240.81
2022-08-03T02:58:22.898Z,101232.47
2022-08-03T03:03:25.747Z,101240.06
2022-08-03T03:08:30.901Z,101241.19
2022-08-03T03:13:34.014Z,101236.50
2022-08-03T03:18:37.986Z,101235.38
2022-08-03T03:23:41.501Z,101241.22
2022-08-03T03:28:43.931Z,101242.47
2022-08-03T03:33:46.203Z,101247.38
2022-08-03T03:38:47.892Z,101244.00
2022-08-03T03:43:50.821Z,101242.75
2022-08-03T03:48:53.202Z,101239.16
2022-08-03T03:54:01.533Z,101245.19
2022-08-03T03:59:03.402Z,101246.84
2022-08-03T04:04:23.782Z,101242.13
2022-08-03T04:09:44.539Z,101243.78
2022-08-03T04:14:47.434Z,101246.53
2022-08-03T04:19:52.702Z,101254.91
2022-08-03T04:25:01.966Z,101251.53
2022-08-03T04:30:04.881Z,101256.25
2022-08-03T04:35:07.326Z,101259.66
2022-08-03T04:40:20.415Z,101267.19
2022-08-03T04:45:27.306Z,101268.22
2022-08-03T04:50:31.292Z,101273.34
2022-08-03T04:55:39.093Z,101275.69
2022-08-03T05:00:42.378Z,101273.34
2022-08-03T05:05:50.226Z,101274.66
2022-08-03T05:10:53.862Z,101271.19
2022-08-03T05:15:56.000Z,101275.44
2022-08-03T05:20:57.995Z,101270.53
2022-08-03T05:25:59.694Z,101275.41
2022-08-03T05:31:01.511Z,101268.56
2022-08-03T05:36:05.705Z,101272.38
2022-08-03T05:41:20.147Z,101268.66
2022-08-03T05:46:23.382Z,101280.22
2022-08-03T05:51:25.079Z,101267.31
2022-08-03T05:56:29.968Z,101274.84
2022-08-03T06:01:57.973Z,101265.72
2022-08-03T06:07:02.314Z,101262.81
2022-08-03T06:12:04.683Z,101271.81
2022-08-03T06:17:06.504Z,101268.09
2022-08-03T06:22:08.598Z,101276.69
2022-08-03T06:27:12.383Z,101271.59
2022-08-03T06:32:14.679Z,101272.31
2022-08-03T06:37:16.627Z,101282.56
2022-08-03T06:42:18.592Z,101278.13
2022-08-03T06:47:22.644Z,101286.09
2022-08-03T06:52:37.557Z,101287.34
2022-08-03T06:57:40.418Z,101293.81
2022-08-03T07:02:43.334Z,101293.72
2022-08-03T07:07:45.042Z,101301.97
2022-08-03T07:12:55.767Z,101305.47
2022-08-03T07:17:59.475Z,101314.53
2022-08-03T07:23:01.234Z,101324.47
2022-08-03T07:28:03.502Z,101332.69
2022-08-03T07:33:05.201Z,101340.63
2022-08-03T07:38:10.053Z,101347.88
2022-08-03T07:43:11.786Z,101353.97
2022-08-03T07:48:13.513Z,101356.25
2022-08-03T07:53:15.268Z,101344.84
2022-08-03T07:58:22.099Z,101347.94
2022-08-03T08:03:26.717Z,101340.78
2022-08-03T08:08:28.721Z,101342.22
2022-08-03T08:13:30.484Z,101364.41
2022-08-03T08:18:32.622Z,101364.34
2022-08-03T08:23:42.261Z,101357.44
2022-08-03T08:28:45.344Z,101364.41
2022-08-03T08:34:04.065Z,101372.88
2022-08-03T08:39:06.363Z,101373.16
2022-08-03T08:44:10.513Z,101363.63
2022-08-03T08:49:17.037Z,101366.66
2022-08-03T08:54:22.432Z,101376.31
2022-08-03T08:59:25.532Z,101380.31
2022-08-03T09:04:31.455Z,101373.75
2022-08-03T09:10:04.661Z,101380.91
2022-08-03T09:15:16.123Z,101384.63
2022-08-03T09:20:18.613Z,101386.59
2022-08-03T09:25:26.501Z,101375.25
2022-08-03T09:30:34.572Z,101392.44
2022-08-03T09:35:59.986Z,101382.50
2022-08-03T09:41:01.770Z,101391.81
2022-08-03T09:46:05.380Z,101394.41
2022-08-03T09:51:13.167Z,101397.88
2022-08-03T09:56:42.863Z,101395.16
2022-08-03T10:02:20.347Z,101389.97
2022-08-03T10:07:24.326Z,101394.31
2022-08-03T10:12:26.854Z,101400.22
2022-08-03T10:17:28.913Z,101390.53
2022-08-03T10:22:35.842Z,101399.16
2022-08-03T10:27:42.742Z,101393.13
2022-08-03T10:32:52.568Z,101401.34
2022-08-03T10:38:07.306Z,101396.13
2022-08-03T10:43:18.637Z,101402.06
2022-08-03T10:48:21.652Z,101401.22
2022-08-03T10:53:42.473Z,101399.78
2022-08-03T10:58:57.022Z,101404.94
2022-08-03T11:03:59.196Z,101391.94
2022-08-03T11:09:10.112Z,101389.06
2022-08-03T11:14:21.526Z,101388.47
2022-08-03T11:19:24.376Z,101388.91
2022-08-03T11:24:41.232Z,101387.38
2022-08-03T11:30:07.575Z,101369.88
2022-08-03T11:35:56.138Z,101387.25
2022-08-03T11:40:58.043Z,101385.47
2022-08-03T11:46:29.685Z,101378.56
2022-08-03T11:51:35.378Z,101389.75
2022-08-03T12:02:34.059Z,101387.75
2022-08-03T12:08:04.899Z,101384.63
2022-08-03T12:14:37.373Z,101382.00
2022-08-03T12:18:43.060Z,101380.59
2022-08-03T12:23:44.869Z,101376.09
2022-08-03T12:28:50.395Z,101378.38
2022-08-03T12:33:58.984Z,101374.84
2022-08-03T12:39:09.626Z,101376.03
2022-08-03T12:44:11.747Z,101374.22
2022-08-03T12:49:15.850Z,101386.50
2022-08-03T12:54:24.272Z,101376.00
2022-08-03T12:59:32.324Z,101389.75
2022-08-03T13:04:37.678Z,101381.72
2022-08-03T13:09:46.769Z,101380.75
2022-08-03T13:14:50.437Z,101379.22
2022-08-03T13:19:52.784Z,101376.75
2022-08-03T13:24:57.860Z,101367.19
2022-08-03T13:30:02.257Z,101374.81
2022-08-03T13:35:05.558Z,101374.34
2022-08-03T13:40:11.646Z,101366.34
2022-08-03T13:45:30.180Z,101362.16
2022-08-03T13:50:32.346Z,101362.94
2022-08-03T13:55:34.063Z,101369.84
2022-08-03T14:00:35.893Z,101369.88
2022-08-03T14:05:39.166Z,101381.31
2022-08-03T14:10:44.372Z,101369.78
2022-08-03T14:15:51.212Z,101381.63
2022-08-03T14:20:56.478Z,101376.50
2022-08-03T14:26:00.751Z,101372.28
2022-08-03T14:31:02.598Z,101364.69
2022-08-03T14:36:05.045Z,101352.81
2022-08-03T14:41:06.898Z,101348.09
2022-08-03T14:46:16.779Z,101346.13
2022-08-03T14:51:22.224Z,101339.97
2022-08-03T14:56:26.616Z,101331.34
2022-08-03T15:02:02.307Z,101322.78
2022-08-03T15:06:51.378Z,101329.28
2022-08-03T15:11:53.860Z,101317.72
2022-08-03T15:16:57.939Z,101323.69
2022-08-03T15:22:01.680Z,101321.19
2022-08-03T15:27:06.268Z,101325.44
2022-08-03T15:32:09.644Z,101323.69
2022-08-03T15:37:16.243Z,101314.69
2022-08-03T15:42:25.057Z,101316.97
2022-08-03T15:47:27.226Z,101304.78
2022-08-03T15:52:29.264Z,101312.97
2022-08-03T15:57:31.539Z,101312.16
2022-08-03T16:02:33.917Z,101310.44
2022-08-03T16:08:02.825Z,101309.03
2022-08-03T16:13:11.869Z,101304.25
2022-08-03T16:18:14.410Z,101307.88
2022-08-03T16:23:18.714Z,101295.75
2022-08-03T16:28:23.137Z,101296.03
2022-08-03T16:33:24.802Z,101303.38
2022-08-03T16:38:27.569Z,101295.75
2022-08-03T16:43:29.249Z,101295.47
2022-08-03T16:48:30.880Z,101285.59
2022-08-03T16:53:33.666Z,101285.88
2022-08-03T16:58:54.200Z,101289.75
2022-08-03T17:04:04.625Z,101290.00
2022-08-03T17:09:17.976Z,101285.47
2022-08-03T17:14:34.275Z,101283.19
2022-08-03T17:19:40.519Z,101281.81
2022-08-03T17:24:54.983Z,101284.63
2022-08-03T17:30:00.988Z,101277.84
2022-08-03T17:35:06.483Z,101276.09
2022-08-03T17:40:17.435Z,101259.69
2022-08-03T17:45:21.198Z,101268.72
2022-08-03T17:55:55.586Z,101263.25
2022-08-03T18:02:00.202Z,101261.00
2022-08-03T18:07:11.163Z,101268.84
2022-08-03T18:12:25.066Z,101268.00
2022-08-03T18:17:54.734Z,101268.16
2022-08-03T18:22:56.955Z,101261.34
2022-08-03T18:28:01.771Z,101254.53
2022-08-03T18:34:17.262Z,101251.13
2022-08-03T18:38:30.511Z,101246.97
2022-08-03T18:43:46.600Z,101253.31
2022-08-03T18:49:08.369Z,101247.59
2022-08-03T18:54:45.850Z,101244.13
2022-08-03T19:06:02.715Z,101244.88
2022-08-03T19:11:15.091Z,101250.09
2022-08-03T19:16:27.285Z,101250.81
2022-08-03T19:21:30.397Z,101245.78
2022-08-03T19:26:36.690Z,101247.84
2022-08-03T19:31:39.499Z,101254.50
2022-08-03T19:37:02.455Z,101251.66
2022-08-03T19:42:12.140Z,101256.22
2022-08-03T19:47:47.809Z,101256.97
2022-08-03T19:52:51.667Z,101253.31
2022-08-03T19:57:54.225Z,101245.69
2022-08-03T20:03:02.693Z,101247.59
2022-08-03T20:08:07.120Z,101242.44
2022-08-03T20:13:13.360Z,101233.19
2022-08-03T20:18:24.616Z,101239.00
2022-08-03T20:23:37.294Z,101236.78
2022-08-03T20:29:42.600Z,101239.69
2022-08-03T20:34:50.324Z,101233.47
2022-08-03T20:39:55.949Z,101235.94
2022-08-03T20:45:05.208Z,101240.97
2022-08-03T20:50:10.605Z,101237.50
2022-08-03T20:55:14.745Z,101221.03
2022-08-03T21:00:21.992Z,101224.59
2022-08-03T21:05:31.142Z,101218.72
2022-08-03T21:10:49.142Z,101214.75
2022-08-03T21:16:06.903Z,101219.50
2022-08-03T21:21:18.377Z,101222.53
2022-08-03T21:26:23.369Z,101205.56
2022-08-03T21:31:26.787Z,101207.53
2022-08-03T21:36:31.268Z,101210.00
2022-08-03T21:41:33.377Z,101199.47
2022-08-03T21:46:40.832Z,101197.91
2022-08-03T21:51:42.553Z,101190.47
2022-08-03T21:56:48.194Z,101186.53
2022-08-03T22:01:55.484Z,101194.34
2022-08-03T22:07:01.111Z,101185.88
2022-08-03T22:12:03.431Z,101189.78
2022-08-03T22:17:07.294Z,101175.13
2022-08-03T22:22:14.001Z,101178.47
2022-08-03T22:27:32.181Z,101180.94
2022-08-03T22:32:34.113Z,101177.00
2022-08-03T22:37:37.136Z,101170.22
2022-08-03T22:42:41.530Z,101181.38
2022-08-03T22:47:47.462Z,101184.84
2022-08-03T22:52:49.196Z,101179.41
2022-08-03T22:57:56.147Z,101190.88
2022-08-03T23:03:01.175Z,101198.59
2022-08-03T23:08:04.849Z,101191.31
2022-08-03T23:13:07.591Z,101192.41
2022-08-03T23:18:09.472Z,101183.06
2022-08-03T23:23:11.743Z,101184.91
2022-08-03T23:28:18.698Z,101185.38
2022-08-03T23:33:21.602Z,101182.50
2022-08-03T23:38:25.029Z,101186.81
2022-08-03T23:43:44.764Z,101178.91
2022-08-03T23:48:51.371Z,101176.09
2022-08-03T23:54:06.217Z,101182.22
2022-08-03T23:59:10.745Z,101178.81
